sensor_id;sensor_type;location;lat;lon;timestamp;P1;durP1;ratioP1;P2;durP2;ratioP2
54171;SDS011;40076;52.354;4.970;2023-11-21T00:00:13;23.63;;;12.88;;
54171;SDS011;40076;52.354;4.970;2023-11-21T00:03:27;25.83;;;13.32;;
54171;SDS011;40076;52.354;4.970;2023-11-21T00:09:39;21.10;;;13.45;;
54171;SDS011;40076;52.354;4.970;2023-11-21T00:15:27;25.92;;;13.20;;
54171;SDS011;40076;52.354;4.970;2023-11-21T00:18:06;23.77;;;13.57;;
54171;SDS011;40076;52.354;4.970;2023-11-21T00:23:59;17.80;;;12.48;;
54171;SDS011;40076;52.354;4.970;2023-11-21T00:26:50;26.10;;;12.77;;
54171;SDS011;40076;52.354;4.970;2023-11-21T00:29:39;26.30;;;12.85;;
54171;SDS011;40076;52.354;4.970;2023-11-21T00:32:29;26.40;;;13.13;;
54171;SDS011;40076;52.354;4.970;2023-11-21T00:35:28;24.80;;;11.55;;
54171;SDS011;40076;52.354;4.970;2023-11-21T00:38:15;22.20;;;11.75;;
54171;SDS011;40076;52.354;4.970;2023-11-21T00:40:50;20.08;;;11.90;;
54171;SDS011;40076;52.354;4.970;2023-11-21T00:43:40;23.00;;;11.80;;
54171;SDS011;40076;52.354;4.970;2023-11-21T01:03:42;27.08;;;12.30;;
54171;SDS011;40076;52.354;4.970;2023-11-21T01:06:51;24.83;;;12.40;;
54171;SDS011;40076;52.354;4.970;2023-11-21T01:09:48;24.95;;;11.90;;
54171;SDS011;40076;52.354;4.970;2023-11-21T01:12:55;27.58;;;11.38;;
54171;SDS011;40076;52.354;4.970;2023-11-21T01:22:13;20.25;;;11.48;;
54171;SDS011;40076;52.354;4.970;2023-11-21T01:28:10;24.83;;;11.32;;
54171;SDS011;40076;52.354;4.970;2023-11-21T01:34:03;21.85;;;11.38;;
54171;SDS011;40076;52.354;4.970;2023-11-21T01:40:06;21.02;;;10.30;;
54171;SDS011;40076;52.354;4.970;2023-11-21T01:46:00;20.23;;;10.50;;
54171;SDS011;40076;52.354;4.970;2023-11-21T01:52:10;21.38;;;10.25;;
54171;SDS011;40076;52.354;4.970;2023-11-21T01:54:47;17.27;;;9.95;;
54171;SDS011;40076;52.354;4.970;2023-11-21T02:07:52;18.42;;;9.88;;
54171;SDS011;40076;52.354;4.970;2023-11-21T02:10:39;23.42;;;10.52;;
54171;SDS011;40076;52.354;4.970;2023-11-21T02:19:28;24.23;;;10.18;;
54171;SDS011;40076;52.354;4.970;2023-11-21T02:22:37;21.42;;;9.60;;
54171;SDS011;40076;52.354;4.970;2023-11-21T02:28:57;24.05;;;10.48;;
54171;SDS011;40076;52.354;4.970;2023-11-21T02:34:48;23.92;;;9.88;;
54171;SDS011;40076;52.354;4.970;2023-11-21T02:37:31;19.55;;;8.93;;
54171;SDS011;40076;52.354;4.970;2023-11-21T02:40:31;21.75;;;10.02;;
54171;SDS011;40076;52.354;4.970;2023-11-21T02:43:20;21.48;;;10.75;;
54171;SDS011;40076;52.354;4.970;2023-11-21T02:46:07;24.88;;;10.57;;
54171;SDS011;40076;52.354;4.970;2023-11-21T02:48:47;22.75;;;10.55;;
54171;SDS011;40076;52.354;4.970;2023-11-21T02:51:31;23.20;;;10.32;;
54171;SDS011;40076;52.354;4.970;2023-11-21T02:54:09;20.38;;;9.80;;
54171;SDS011;40076;52.354;4.970;2023-11-21T02:59:40;20.08;;;9.10;;
54171;SDS011;40076;52.354;4.970;2023-11-21T03:02:25;17.70;;;9.90;;
54171;SDS011;40076;52.354;4.970;2023-11-21T03:05:05;16.20;;;9.10;;
54171;SDS011;40076;52.354;4.970;2023-11-21T03:08:02;20.85;;;10.15;;
54171;SDS011;40076;52.354;4.970;2023-11-21T03:10:49;19.92;;;10.40;;
54171;SDS011;40076;52.354;4.970;2023-11-21T03:13:42;19.90;;;9.75;;
54171;SDS011;40076;52.354;4.970;2023-11-21T03:16:31;20.55;;;9.88;;
54171;SDS011;40076;52.354;4.970;2023-11-21T03:19:00;18.88;;;9.93;;
54171;SDS011;40076;52.354;4.970;2023-11-21T03:21:48;20.05;;;10.13;;
54171;SDS011;40076;52.354;4.970;2023-11-21T03:24:18;20.35;;;10.40;;
54171;SDS011;40076;52.354;4.970;2023-11-21T03:26:57;22.90;;;10.95;;
54171;SDS011;40076;52.354;4.970;2023-11-21T03:32:01;24.65;;;10.52;;
54171;SDS011;40076;52.354;4.970;2023-11-21T03:34:35;19.08;;;9.77;;
54171;SDS011;40076;52.354;4.970;2023-11-21T03:37:18;22.70;;;10.52;;
54171;SDS011;40076;52.354;4.970;2023-11-21T03:40:12;23.38;;;10.95;;
54171;SDS011;40076;52.354;4.970;2023-11-21T03:42:45;23.67;;;10.40;;
54171;SDS011;40076;52.354;4.970;2023-11-21T03:45:16;25.55;;;10.30;;
54171;SDS011;40076;52.354;4.970;2023-11-21T03:48:07;23.05;;;11.50;;
54171;SDS011;40076;52.354;4.970;2023-11-21T03:50:36;25.77;;;10.65;;
54171;SDS011;40076;52.354;4.970;2023-11-21T03:53:09;25.95;;;10.52;;
54171;SDS011;40076;52.354;4.970;2023-11-21T03:55:40;21.60;;;10.98;;
54171;SDS011;40076;52.354;4.970;2023-11-21T03:58:16;24.50;;;11.40;;
54171;SDS011;40076;52.354;4.970;2023-11-21T04:01:04;28.35;;;11.70;;
54171;SDS011;40076;52.354;4.970;2023-11-21T04:03:31;23.60;;;11.00;;
54171;SDS011;40076;52.354;4.970;2023-11-21T04:06:18;22.33;;;11.55;;
54171;SDS011;40076;52.354;4.970;2023-11-21T04:08:46;22.50;;;10.43;;
54171;SDS011;40076;52.354;4.970;2023-11-21T04:11:27;18.33;;;11.43;;
54171;SDS011;40076;52.354;4.970;2023-11-21T04:13:54;19.73;;;10.70;;
54171;SDS011;40076;52.354;4.970;2023-11-21T04:16:32;24.77;;;11.32;;
54171;SDS011;40076;52.354;4.970;2023-11-21T04:19:01;19.02;;;10.35;;
54171;SDS011;40076;52.354;4.970;2023-11-21T04:21:29;20.98;;;11.25;;
54171;SDS011;40076;52.354;4.970;2023-11-21T04:24:12;23.35;;;10.70;;
54171;SDS011;40076;52.354;4.970;2023-11-21T04:26:44;28.05;;;10.95;;
54171;SDS011;40076;52.354;4.970;2023-11-21T04:29:14;20.08;;;10.27;;
54171;SDS011;40076;52.354;4.970;2023-11-21T04:31:43;22.95;;;10.90;;
54171;SDS011;40076;52.354;4.970;2023-11-21T04:34:17;20.08;;;9.75;;
54171;SDS011;40076;52.354;4.970;2023-11-21T04:36:49;15.70;;;9.70;;
54171;SDS011;40076;52.354;4.970;2023-11-21T04:39:22;21.52;;;10.32;;
54171;SDS011;40076;52.354;4.970;2023-11-21T04:42:01;19.50;;;9.82;;
54171;SDS011;40076;52.354;4.970;2023-11-21T04:44:37;15.82;;;8.52;;
54171;SDS011;40076;52.354;4.970;2023-11-21T04:47:20;18.58;;;8.70;;
54171;SDS011;40076;52.354;4.970;2023-11-21T04:49:49;22.10;;;8.40;;
54171;SDS011;40076;52.354;4.970;2023-11-21T04:52:24;17.15;;;8.30;;
54171;SDS011;40076;52.354;4.970;2023-11-21T04:54:52;14.95;;;7.38;;
54171;SDS011;40076;52.354;4.970;2023-11-21T04:57:25;15.55;;;7.65;;
54171;SDS011;40076;52.354;4.970;2023-11-21T04:59:53;19.25;;;8.13;;
54171;SDS011;40076;52.354;4.970;2023-11-21T05:02:21;13.90;;;6.40;;
54171;SDS011;40076;52.354;4.970;2023-11-21T05:04:49;14.88;;;6.88;;
54171;SDS011;40076;52.354;4.970;2023-11-21T05:07:18;16.48;;;7.82;;
54171;SDS011;40076;52.354;4.970;2023-11-21T05:09:44;14.38;;;6.43;;
54171;SDS011;40076;52.354;4.970;2023-11-21T05:12:12;16.17;;;6.25;;
54171;SDS011;40076;52.354;4.970;2023-11-21T05:14:39;15.65;;;6.13;;
54171;SDS011;40076;52.354;4.970;2023-11-21T05:17:07;12.82;;;5.45;;
54171;SDS011;40076;52.354;4.970;2023-11-21T05:19:36;13.98;;;5.20;;
54171;SDS011;40076;52.354;4.970;2023-11-21T05:22:03;15.07;;;5.45;;
54171;SDS011;40076;52.354;4.970;2023-11-21T05:24:31;15.23;;;5.47;;
54171;SDS011;40076;52.354;4.970;2023-11-21T05:26:56;23.27;;;5.78;;
54171;SDS011;40076;52.354;4.970;2023-11-21T05:29:22;16.58;;;5.15;;
54171;SDS011;40076;52.354;4.970;2023-11-21T05:31:51;13.27;;;5.05;;
54171;SDS011;40076;52.354;4.970;2023-11-21T05:34:16;18.23;;;5.57;;
54171;SDS011;40076;52.354;4.970;2023-11-21T05:36:51;13.82;;;5.60;;
54171;SDS011;40076;52.354;4.970;2023-11-21T05:39:16;17.70;;;5.70;;
54171;SDS011;40076;52.354;4.970;2023-11-21T05:41:44;14.35;;;5.47;;
54171;SDS011;40076;52.354;4.970;2023-11-21T05:44:15;15.48;;;5.13;;
54171;SDS011;40076;52.354;4.970;2023-11-21T05:46:41;17.15;;;5.47;;
54171;SDS011;40076;52.354;4.970;2023-11-21T05:49:08;20.83;;;5.03;;
54171;SDS011;40076;52.354;4.970;2023-11-21T05:54:06;15.38;;;5.40;;
54171;SDS011;40076;52.354;4.970;2023-11-21T05:56:33;14.88;;;5.13;;
54171;SDS011;40076;52.354;4.970;2023-11-21T05:59:08;15.30;;;5.32;;
54171;SDS011;40076;52.354;4.970;2023-11-21T06:01:34;14.00;;;5.10;;
54171;SDS011;40076;52.354;4.970;2023-11-21T06:04:27;10.55;;;4.13;;
54171;SDS011;40076;52.354;4.970;2023-11-21T06:06:57;14.52;;;4.30;;
54171;SDS011;40076;52.354;4.970;2023-11-21T06:09:34;14.18;;;4.68;;
54171;SDS011;40076;52.354;4.970;2023-11-21T06:11:59;13.55;;;5.40;;
54171;SDS011;40076;52.354;4.970;2023-11-21T06:14:31;13.57;;;5.22;;
54171;SDS011;40076;52.354;4.970;2023-11-21T06:17:15;14.93;;;5.47;;
54171;SDS011;40076;52.354;4.970;2023-11-21T06:19:44;13.63;;;5.70;;
54171;SDS011;40076;52.354;4.970;2023-11-21T06:22:13;15.45;;;5.53;;
54171;SDS011;40076;52.354;4.970;2023-11-21T06:24:51;14.88;;;5.40;;
54171;SDS011;40076;52.354;4.970;2023-11-21T06:27:19;10.70;;;5.47;;
54171;SDS011;40076;52.354;4.970;2023-11-21T06:30:01;20.02;;;6.70;;
54171;SDS011;40076;52.354;4.970;2023-11-21T06:32:36;14.18;;;6.22;;
54171;SDS011;40076;52.354;4.970;2023-11-21T06:35:10;17.02;;;7.00;;
54171;SDS011;40076;52.354;4.970;2023-11-21T06:37:47;14.88;;;7.07;;
54171;SDS011;40076;52.354;4.970;2023-11-21T06:40:24;19.10;;;6.95;;
54171;SDS011;40076;52.354;4.970;2023-11-21T06:43:01;16.48;;;8.35;;
54171;SDS011;40076;52.354;4.970;2023-11-21T06:45:51;21.55;;;8.15;;
54171;SDS011;40076;52.354;4.970;2023-11-21T06:48:30;17.65;;;8.82;;
54171;SDS011;40076;52.354;4.970;2023-11-21T06:50:58;20.33;;;9.60;;
54171;SDS011;40076;52.354;4.970;2023-11-21T06:56:38;18.77;;;6.88;;
54171;SDS011;40076;52.354;4.970;2023-11-21T06:59:04;16.88;;;6.78;;
54171;SDS011;40076;52.354;4.970;2023-11-21T07:01:30;18.92;;;7.35;;
54171;SDS011;40076;52.354;4.970;2023-11-21T07:03:59;16.83;;;7.90;;
54171;SDS011;40076;52.354;4.970;2023-11-21T07:06:32;21.15;;;7.40;;
54171;SDS011;40076;52.354;4.970;2023-11-21T07:08:58;17.33;;;7.45;;
54171;SDS011;40076;52.354;4.970;2023-11-21T07:11:23;18.20;;;8.15;;
54171;SDS011;40076;52.354;4.970;2023-11-21T07:13:51;17.83;;;8.77;;
54171;SDS011;40076;52.354;4.970;2023-11-21T07:16:17;18.73;;;8.65;;
54171;SDS011;40076;52.354;4.970;2023-11-21T07:18:43;24.70;;;8.52;;
54171;SDS011;40076;52.354;4.970;2023-11-21T07:21:09;19.45;;;8.45;;
54171;SDS011;40076;52.354;4.970;2023-11-21T07:23:36;21.35;;;8.98;;
54171;SDS011;40076;52.354;4.970;2023-11-21T07:26:02;27.35;;;10.68;;
54171;SDS011;40076;52.354;4.970;2023-11-21T07:28:31;22.10;;;9.13;;
54171;SDS011;40076;52.354;4.970;2023-11-21T07:30:56;20.70;;;8.95;;
54171;SDS011;40076;52.354;4.970;2023-11-21T07:33:22;20.10;;;8.63;;
54171;SDS011;40076;52.354;4.970;2023-11-21T07:35:47;18.23;;;8.77;;
54171;SDS011;40076;52.354;4.970;2023-11-21T07:38:13;23.85;;;8.50;;
54171;SDS011;40076;52.354;4.970;2023-11-21T07:40:38;22.40;;;9.30;;
54171;SDS011;40076;52.354;4.970;2023-11-21T07:43:04;23.08;;;8.68;;
54171;SDS011;40076;52.354;4.970;2023-11-21T07:45:30;17.60;;;8.68;;
54171;SDS011;40076;52.354;4.970;2023-11-21T07:47:56;26.15;;;8.73;;
54171;SDS011;40076;52.354;4.970;2023-11-21T07:50:21;19.25;;;8.10;;
54171;SDS011;40076;52.354;4.970;2023-11-21T07:52:48;18.58;;;8.65;;
54171;SDS011;40076;52.354;4.970;2023-11-21T07:55:14;19.13;;;7.55;;
54171;SDS011;40076;52.354;4.970;2023-11-21T07:57:40;20.58;;;7.35;;
54171;SDS011;40076;52.354;4.970;2023-11-21T08:00:06;17.67;;;7.70;;
54171;SDS011;40076;52.354;4.970;2023-11-21T08:02:36;22.35;;;8.30;;
54171;SDS011;40076;52.354;4.970;2023-11-21T08:05:01;22.55;;;8.88;;
54171;SDS011;40076;52.354;4.970;2023-11-21T08:07:27;21.52;;;8.90;;
54171;SDS011;40076;52.354;4.970;2023-11-21T08:09:52;22.42;;;8.57;;
54171;SDS011;40076;52.354;4.970;2023-11-21T08:12:18;22.83;;;9.30;;
54171;SDS011;40076;52.354;4.970;2023-11-21T08:14:45;23.10;;;8.77;;
54171;SDS011;40076;52.354;4.970;2023-11-21T08:17:13;17.20;;;7.90;;
54171;SDS011;40076;52.354;4.970;2023-11-21T08:19:39;20.33;;;8.15;;
54171;SDS011;40076;52.354;4.970;2023-11-21T08:22:04;20.88;;;8.50;;
54171;SDS011;40076;52.354;4.970;2023-11-21T08:24:32;16.65;;;7.78;;
54171;SDS011;40076;52.354;4.970;2023-11-21T08:27:00;20.27;;;8.18;;
54171;SDS011;40076;52.354;4.970;2023-11-21T08:29:26;19.88;;;9.00;;
54171;SDS011;40076;52.354;4.970;2023-11-21T08:31:51;18.45;;;8.15;;
54171;SDS011;40076;52.354;4.970;2023-11-21T08:34:34;19.08;;;8.88;;
54171;SDS011;40076;52.354;4.970;2023-11-21T08:37:02;20.77;;;8.75;;
54171;SDS011;40076;52.354;4.970;2023-11-21T08:39:28;20.95;;;9.20;;
54171;SDS011;40076;52.354;4.970;2023-11-21T08:41:55;21.63;;;9.50;;
54171;SDS011;40076;52.354;4.970;2023-11-21T08:44:21;25.25;;;10.50;;
54171;SDS011;40076;52.354;4.970;2023-11-21T08:46:51;22.23;;;9.25;;
54171;SDS011;40076;52.354;4.970;2023-11-21T08:49:19;20.60;;;10.70;;
54171;SDS011;40076;52.354;4.970;2023-11-21T08:51:44;23.63;;;10.68;;
54171;SDS011;40076;52.354;4.970;2023-11-21T08:54:10;23.88;;;10.52;;
54171;SDS011;40076;52.354;4.970;2023-11-21T08:56:37;26.65;;;10.52;;
54171;SDS011;40076;52.354;4.970;2023-11-21T08:59:08;20.42;;;10.57;;
54171;SDS011;40076;52.354;4.970;2023-11-21T09:01:33;25.50;;;11.15;;
54171;SDS011;40076;52.354;4.970;2023-11-21T09:04:01;19.27;;;9.95;;
54171;SDS011;40076;52.354;4.970;2023-11-21T09:06:29;21.27;;;10.18;;
54171;SDS011;40076;52.354;4.970;2023-11-21T09:08:54;19.23;;;10.13;;
54171;SDS011;40076;52.354;4.970;2023-11-21T09:11:20;23.40;;;10.05;;
54171;SDS011;40076;52.354;4.970;2023-11-21T09:13:48;21.40;;;11.70;;
54171;SDS011;40076;52.354;4.970;2023-11-21T09:16:14;24.55;;;11.20;;
54171;SDS011;40076;52.354;4.970;2023-11-21T09:18:42;30.92;;;15.13;;
54171;SDS011;40076;52.354;4.970;2023-11-21T09:21:13;31.35;;;15.32;;
54171;SDS011;40076;52.354;4.970;2023-11-21T09:23:49;34.10;;;14.68;;
54171;SDS011;40076;52.354;4.970;2023-11-21T09:26:14;35.45;;;15.65;;
54171;SDS011;40076;52.354;4.970;2023-11-21T09:28:41;31.67;;;14.95;;
54171;SDS011;40076;52.354;4.970;2023-11-21T09:31:14;35.97;;;14.50;;
54171;SDS011;40076;52.354;4.970;2023-11-21T09:33:46;28.83;;;13.90;;
54171;SDS011;40076;52.354;4.970;2023-11-21T09:36:15;29.40;;;14.00;;
54171;SDS011;40076;52.354;4.970;2023-11-21T09:38:41;28.55;;;13.85;;
54171;SDS011;40076;52.354;4.970;2023-11-21T10:09:06;25.48;;;11.98;;
54171;SDS011;40076;52.354;4.970;2023-11-21T10:11:57;24.58;;;11.45;;
54171;SDS011;40076;52.354;4.970;2023-11-21T10:17:48;27.25;;;11.98;;
54171;SDS011;40076;52.354;4.970;2023-11-21T10:20:18;31.55;;;12.65;;
54171;SDS011;40076;52.354;4.970;2023-11-21T10:22:48;26.83;;;13.32;;
54171;SDS011;40076;52.354;4.970;2023-11-21T10:25:19;25.90;;;12.43;;
54171;SDS011;40076;52.354;4.970;2023-11-21T10:28:10;27.05;;;12.48;;
54171;SDS011;40076;52.354;4.970;2023-11-21T10:30:40;23.50;;;10.85;;
54171;SDS011;40076;52.354;4.970;2023-11-21T10:33:18;24.02;;;11.70;;
54171;SDS011;40076;52.354;4.970;2023-11-21T10:36:11;25.10;;;11.75;;
54171;SDS011;40076;52.354;4.970;2023-11-21T10:39:03;27.80;;;13.13;;
54171;SDS011;40076;52.354;4.970;2023-11-21T10:41:43;24.80;;;11.85;;
54171;SDS011;40076;52.354;4.970;2023-11-21T10:44:38;27.77;;;12.32;;
54171;SDS011;40076;52.354;4.970;2023-11-21T10:47:03;26.13;;;12.35;;
54171;SDS011;40076;52.354;4.970;2023-11-21T10:49:40;30.02;;;12.98;;
54171;SDS011;40076;52.354;4.970;2023-11-21T10:52:07;28.73;;;12.43;;
54171;SDS011;40076;52.354;4.970;2023-11-21T10:54:48;29.80;;;13.43;;
54171;SDS011;40076;52.354;4.970;2023-11-21T10:57:17;31.48;;;14.25;;
54171;SDS011;40076;52.354;4.970;2023-11-21T10:59:50;30.40;;;13.80;;
54171;SDS011;40076;52.354;4.970;2023-11-21T11:02:28;30.92;;;13.95;;
54171;SDS011;40076;52.354;4.970;2023-11-21T11:04:57;29.10;;;12.15;;
54171;SDS011;40076;52.354;4.970;2023-11-21T11:07:30;31.52;;;14.32;;
54171;SDS011;40076;52.354;4.970;2023-11-21T11:13:47;29.88;;;15.32;;
54171;SDS011;40076;52.354;4.970;2023-11-21T11:16:18;31.70;;;15.30;;
54171;SDS011;40076;52.354;4.970;2023-11-21T11:18:51;30.45;;;14.73;;
54171;SDS011;40076;52.354;4.970;2023-11-21T11:25:03;27.80;;;13.73;;
54171;SDS011;40076;52.354;4.970;2023-11-21T11:46:44;16.88;;;10.45;;
54171;SDS011;40076;52.354;4.970;2023-11-21T11:52:45;17.52;;;10.90;;
54171;SDS011;40076;52.354;4.970;2023-11-21T12:12:02;19.13;;;11.60;;
54171;SDS011;40076;52.354;4.970;2023-11-21T12:14:40;21.17;;;11.77;;
54171;SDS011;40076;52.354;4.970;2023-11-21T12:17:10;21.23;;;12.07;;
54171;SDS011;40076;52.354;4.970;2023-11-21T12:19:48;18.25;;;11.82;;
54171;SDS011;40076;52.354;4.970;2023-11-21T12:22:34;20.70;;;12.10;;
54171;SDS011;40076;52.354;4.970;2023-11-21T12:25:06;20.03;;;12.13;;
54171;SDS011;40076;52.354;4.970;2023-11-21T12:27:44;19.13;;;12.15;;
54171;SDS011;40076;52.354;4.970;2023-11-21T12:32:41;23.60;;;12.77;;
54171;SDS011;40076;52.354;4.970;2023-11-21T12:35:25;22.98;;;14.05;;
54171;SDS011;40076;52.354;4.970;2023-11-21T12:37:52;26.73;;;15.38;;
54171;SDS011;40076;52.354;4.970;2023-11-21T12:40:19;21.60;;;13.88;;
54171;SDS011;40076;52.354;4.970;2023-11-21T12:42:57;24.25;;;15.15;;
54171;SDS011;40076;52.354;4.970;2023-11-21T12:45:34;24.40;;;14.98;;
54171;SDS011;40076;52.354;4.970;2023-11-21T12:48:04;22.90;;;13.80;;
54171;SDS011;40076;52.354;4.970;2023-11-21T12:50:36;23.27;;;15.10;;
54171;SDS011;40076;52.354;4.970;2023-11-21T12:53:04;22.17;;;14.50;;
54171;SDS011;40076;52.354;4.970;2023-11-21T12:55:41;24.35;;;15.07;;
54171;SDS011;40076;52.354;4.970;2023-11-21T12:58:32;21.35;;;14.20;;
54171;SDS011;40076;52.354;4.970;2023-11-21T13:01:10;21.52;;;14.48;;
54171;SDS011;40076;52.354;4.970;2023-11-21T13:03:46;23.48;;;14.13;;
54171;SDS011;40076;52.354;4.970;2023-11-21T13:06:18;22.85;;;14.13;;
54171;SDS011;40076;52.354;4.970;2023-11-21T13:08:57;22.83;;;13.27;;
54171;SDS011;40076;52.354;4.970;2023-11-21T13:11:41;21.40;;;12.27;;
54171;SDS011;40076;52.354;4.970;2023-11-21T13:14:10;19.00;;;11.98;;
54171;SDS011;40076;52.354;4.970;2023-11-21T13:16:36;19.45;;;11.82;;
54171;SDS011;40076;52.354;4.970;2023-11-21T13:19:03;20.45;;;12.43;;
54171;SDS011;40076;52.354;4.970;2023-11-21T13:21:28;20.42;;;12.52;;
54171;SDS011;40076;52.354;4.970;2023-11-21T13:23:54;20.98;;;12.45;;
54171;SDS011;40076;52.354;4.970;2023-11-21T13:26:21;18.05;;;12.27;;
54171;SDS011;40076;52.354;4.970;2023-11-21T13:28:49;19.25;;;12.25;;
54171;SDS011;40076;52.354;4.970;2023-11-21T13:31:15;17.10;;;12.10;;
54171;SDS011;40076;52.354;4.970;2023-11-21T13:33:52;18.33;;;10.93;;
54171;SDS011;40076;52.354;4.970;2023-11-21T13:36:29;17.42;;;11.63;;
54171;SDS011;40076;52.354;4.970;2023-11-21T13:39:00;16.35;;;11.07;;
54171;SDS011;40076;52.354;4.970;2023-11-21T13:41:32;17.05;;;11.60;;
54171;SDS011;40076;52.354;4.970;2023-11-21T13:43:57;16.70;;;11.07;;
54171;SDS011;40076;52.354;4.970;2023-11-21T13:46:32;14.93;;;10.73;;
54171;SDS011;40076;52.354;4.970;2023-11-21T13:49:02;15.68;;;10.25;;
54171;SDS011;40076;52.354;4.970;2023-11-21T13:51:27;14.48;;;10.43;;
54171;SDS011;40076;52.354;4.970;2023-11-21T13:54:02;15.70;;;10.00;;
54171;SDS011;40076;52.354;4.970;2023-11-21T13:56:30;14.18;;;10.88;;
54171;SDS011;40076;52.354;4.970;2023-11-21T13:58:56;15.77;;;11.73;;
54171;SDS011;40076;52.354;4.970;2023-11-21T14:01:30;16.13;;;11.18;;
54171;SDS011;40076;52.354;4.970;2023-11-21T14:04:17;13.73;;;10.52;;
54171;SDS011;40076;52.354;4.970;2023-11-21T14:06:43;18.40;;;11.73;;
54171;SDS011;40076;52.354;4.970;2023-11-21T14:09:17;16.27;;;12.00;;
54171;SDS011;40076;52.354;4.970;2023-11-21T14:11:57;16.50;;;11.10;;
54171;SDS011;40076;52.354;4.970;2023-11-21T14:14:24;15.75;;;11.75;;
54171;SDS011;40076;52.354;4.970;2023-11-21T14:16:53;15.77;;;11.60;;
54171;SDS011;40076;52.354;4.970;2023-11-21T14:19:21;17.88;;;12.50;;
54171;SDS011;40076;52.354;4.970;2023-11-21T14:21:47;17.95;;;12.30;;
54171;SDS011;40076;52.354;4.970;2023-11-21T14:24:13;16.42;;;12.68;;
54171;SDS011;40076;52.354;4.970;2023-11-21T14:26:41;19.45;;;14.50;;
54171;SDS011;40076;52.354;4.970;2023-11-21T14:29:08;23.02;;;15.07;;
54171;SDS011;40076;52.354;4.970;2023-11-21T14:31:39;21.50;;;15.05;;
54171;SDS011;40076;52.354;4.970;2023-11-21T14:34:07;20.08;;;14.82;;
54171;SDS011;40076;52.354;4.970;2023-11-21T14:36:33;20.13;;;14.23;;
54171;SDS011;40076;52.354;4.970;2023-11-21T14:38:58;20.73;;;13.95;;
54171;SDS011;40076;52.354;4.970;2023-11-21T14:41:28;16.25;;;11.38;;
54171;SDS011;40076;52.354;4.970;2023-11-21T14:43:54;15.30;;;11.45;;
54171;SDS011;40076;52.354;4.970;2023-11-21T14:46:22;16.38;;;12.23;;
54171;SDS011;40076;52.354;4.970;2023-11-21T14:48:48;17.35;;;11.85;;
54171;SDS011;40076;52.354;4.970;2023-11-21T14:51:24;23.13;;;12.93;;
54171;SDS011;40076;52.354;4.970;2023-11-21T14:53:57;16.80;;;13.20;;
54171;SDS011;40076;52.354;4.970;2023-11-21T14:56:31;17.30;;;13.38;;
54171;SDS011;40076;52.354;4.970;2023-11-21T14:58:58;16.42;;;12.70;;
54171;SDS011;40076;52.354;4.970;2023-11-21T15:01:27;17.80;;;13.40;;
54171;SDS011;40076;52.354;4.970;2023-11-21T15:04:09;16.52;;;12.68;;
54171;SDS011;40076;52.354;4.970;2023-11-21T15:07:08;15.85;;;12.35;;
54171;SDS011;40076;52.354;4.970;2023-11-21T15:09:35;18.15;;;13.15;;
54171;SDS011;40076;52.354;4.970;2023-11-21T15:12:04;16.48;;;12.30;;
54171;SDS011;40076;52.354;4.970;2023-11-21T15:17:12;12.52;;;10.35;;
54171;SDS011;40076;52.354;4.970;2023-11-21T15:19:48;13.82;;;10.77;;
54171;SDS011;40076;52.354;4.970;2023-11-21T15:22:14;15.02;;;12.25;;
54171;SDS011;40076;52.354;4.970;2023-11-21T15:24:41;14.98;;;12.02;;
54171;SDS011;40076;52.354;4.970;2023-11-21T15:27:11;16.58;;;12.90;;
54171;SDS011;40076;52.354;4.970;2023-11-21T15:29:40;15.02;;;12.18;;
54171;SDS011;40076;52.354;4.970;2023-11-21T15:32:07;15.32;;;12.32;;
54171;SDS011;40076;52.354;4.970;2023-11-21T15:34:33;13.55;;;11.70;;
54171;SDS011;40076;52.354;4.970;2023-11-21T15:36:59;14.50;;;11.90;;
54171;SDS011;40076;52.354;4.970;2023-11-21T15:39:24;14.15;;;12.15;;
54171;SDS011;40076;52.354;4.970;2023-11-21T15:41:53;16.98;;;12.05;;
54171;SDS011;40076;52.354;4.970;2023-11-21T15:44:18;13.05;;;11.27;;
54171;SDS011;40076;52.354;4.970;2023-11-21T15:46:44;14.52;;;11.88;;
54171;SDS011;40076;52.354;4.970;2023-11-21T15:49:10;14.77;;;11.45;;
54171;SDS011;40076;52.354;4.970;2023-11-21T15:51:38;15.65;;;11.23;;
54171;SDS011;40076;52.354;4.970;2023-11-21T15:54:17;12.40;;;10.45;;
54171;SDS011;40076;52.354;4.970;2023-11-21T15:56:46;14.82;;;11.32;;
54171;SDS011;40076;52.354;4.970;2023-11-21T15:59:11;14.75;;;11.88;;
54171;SDS011;40076;52.354;4.970;2023-11-21T16:01:37;14.95;;;11.20;;
54171;SDS011;40076;52.354;4.970;2023-11-21T16:04:08;15.73;;;11.07;;
54171;SDS011;40076;52.354;4.970;2023-11-21T16:06:33;15.05;;;10.02;;
54171;SDS011;40076;52.354;4.970;2023-11-21T16:09:04;10.90;;;8.57;;
54171;SDS011;40076;52.354;4.970;2023-11-21T16:11:31;11.52;;;7.90;;
54171;SDS011;40076;52.354;4.970;2023-11-21T16:13:58;10.88;;;7.80;;
54171;SDS011;40076;52.354;4.970;2023-11-21T16:16:23;10.27;;;6.88;;
54171;SDS011;40076;52.354;4.970;2023-11-21T16:18:49;10.55;;;7.10;;
54171;SDS011;40076;52.354;4.970;2023-11-21T16:21:15;12.40;;;7.97;;
54171;SDS011;40076;52.354;4.970;2023-11-21T16:23:40;10.30;;;7.55;;
54171;SDS011;40076;52.354;4.970;2023-11-21T16:26:06;10.70;;;7.78;;
54171;SDS011;40076;52.354;4.970;2023-11-21T16:28:31;11.10;;;7.90;;
54171;SDS011;40076;52.354;4.970;2023-11-21T16:30:56;10.80;;;7.57;;
54171;SDS011;40076;52.354;4.970;2023-11-21T16:33:22;10.52;;;7.32;;
54171;SDS011;40076;52.354;4.970;2023-11-21T16:35:47;10.75;;;7.10;;
54171;SDS011;40076;52.354;4.970;2023-11-21T16:38:13;12.18;;;7.40;;
54171;SDS011;40076;52.354;4.970;2023-11-21T16:40:38;10.27;;;7.22;;
54171;SDS011;40076;52.354;4.970;2023-11-21T16:43:05;10.88;;;7.10;;
54171;SDS011;40076;52.354;4.970;2023-11-21T16:45:31;11.45;;;7.50;;
54171;SDS011;40076;52.354;4.970;2023-11-21T16:47:56;10.43;;;7.40;;
54171;SDS011;40076;52.354;4.970;2023-11-21T16:50:21;10.15;;;6.57;;
54171;SDS011;40076;52.354;4.970;2023-11-21T16:52:47;10.48;;;6.82;;
54171;SDS011;40076;52.354;4.970;2023-11-21T16:55:12;9.32;;;6.72;;
54171;SDS011;40076;52.354;4.970;2023-11-21T16:57:38;9.50;;;6.35;;
54171;SDS011;40076;52.354;4.970;2023-11-21T17:00:04;10.38;;;7.63;;
54171;SDS011;40076;52.354;4.970;2023-11-21T17:02:32;11.02;;;7.65;;
54171;SDS011;40076;52.354;4.970;2023-11-21T17:04:58;12.43;;;7.45;;
54171;SDS011;40076;52.354;4.970;2023-11-21T17:07:23;12.65;;;8.70;;
54171;SDS011;40076;52.354;4.970;2023-11-21T17:09:49;10.52;;;6.80;;
54171;SDS011;40076;52.354;4.970;2023-11-21T17:12:14;8.95;;;6.10;;
54171;SDS011;40076;52.354;4.970;2023-11-21T17:14:40;11.70;;;6.45;;
54171;SDS011;40076;52.354;4.970;2023-11-21T17:17:07;13.30;;;10.05;;
54171;SDS011;40076;52.354;4.970;2023-11-21T17:19:35;8.93;;;6.20;;
54171;SDS011;40076;52.354;4.970;2023-11-21T17:22:01;8.80;;;5.70;;
54171;SDS011;40076;52.354;4.970;2023-11-21T17:24:26;11.25;;;7.18;;
54171;SDS011;40076;52.354;4.970;2023-11-21T17:26:52;9.48;;;6.65;;
54171;SDS011;40076;52.354;4.970;2023-11-21T17:29:18;10.25;;;6.93;;
54171;SDS011;40076;52.354;4.970;2023-11-21T17:31:43;9.82;;;6.70;;
54171;SDS011;40076;52.354;4.970;2023-11-21T17:34:09;10.55;;;7.05;;
54171;SDS011;40076;52.354;4.970;2023-11-21T17:36:34;10.95;;;7.40;;
54171;SDS011;40076;52.354;4.970;2023-11-21T17:39:00;10.77;;;7.82;;
54171;SDS011;40076;52.354;4.970;2023-11-21T17:41:25;12.40;;;8.18;;
54171;SDS011;40076;52.354;4.970;2023-11-21T17:43:50;11.82;;;7.80;;
54171;SDS011;40076;52.354;4.970;2023-11-21T17:46:19;11.13;;;8.07;;